Time;durP1;ratioP1;P1;durP2;ratioP2;P2;SDS_P1;SDS_P2;PMS_P1;PMS_P2;Temp;Humidity;BMP_temperature;BMP_pressure;BME280_temperature;BME280_humidity;BME280_pressure;Samples;Min_cycle;Max_cycle;Signal;HPM_P1;HPM_P2
2023/07/13 00:00:47;;;;;;;7.80;1.83;;;;;;;-142.57;56.13;115900.28;6255471;23;19911;-79
2023/07/13 00:03:17;;;;;;;8.93;1.27;;;;;;;-142.57;56.39;115900.28;6268388;22;20028;-88
2023/07/13 00:05:44;;;;;;;3.40;1.20;;;;;;;-142.57;56.23;115900.28;6260973;22;20015;-86
2023/07/13 00:08:11;;;;;;;15.20;1.55;;;;;;;-142.57;56.44;115900.28;6260273;22;20379;-85
2023/07/13 00:10:41;;;;;;;5.15;1.55;;;;;;;-142.57;56.87;115900.28;6284004;22;20008;-86
2023/07/13 00:13:08;;;;;;;7.82;1.67;;;;;;;-142.57;56.85;115900.28;6282378;22;20012;-86
2023/07/13 00:15:35;;;;;;;10.57;1.40;;;;;;;-142.57;56.73;115900.28;6253821;22;20015;-86
2023/07/13 00:18:03;;;;;;;7.47;1.60;;;;;;;-142.57;57.08;115900.28;6286586;22;20014;-86
2023/07/13 00:20:33;;;;;;;8.82;1.42;;;;;;;-142.57;57.32;115900.28;6291356;22;20327;-87
2023/07/13 00:22:58;;;;;;;5.93;1.75;;;;;;;-142.57;57.72;115900.28;6285365;22;20011;-87
2023/07/13 00:25:26;;;;;;;9.32;1.60;;;;;;;-142.57;57.87;115900.28;6285742;22;20014;-87
2023/07/13 00:27:51;;;;;;;8.20;1.70;;;;;;;-142.57;58.26;115900.28;6231741;22;20016;-86
2023/07/13 00:30:17;;;;;;;13.43;1.55;;;;;;;-142.57;58.98;115900.28;6206450;22;20389;-86
2023/07/13 00:32:43;;;;;;;4.55;1.30;;;;;;;-142.57;59.15;115900.28;6284387;22;20022;-86
2023/07/13 00:35:14;;;;;;;4.47;1.55;;;;;;;-142.57;58.64;115900.28;6283788;22;20012;-84
2023/07/13 00:37:39;;;;;;;5.78;1.60;;;;;;;-142.57;58.98;115900.28;6285188;22;20431;-85
2023/07/13 00:40:05;;;;;;;8.10;1.80;;;;;;;-142.57;58.48;115900.28;6258342;22;20050;-85
2023/07/13 00:42:31;;;;;;;4.93;1.40;;;;;;;-142.57;58.15;115900.28;6257883;22;20040;-86
2023/07/13 00:45:26;;;;;;;4.53;1.35;;;;;;;-142.57;58.73;115900.28;6283999;22;20419;-84
2023/07/13 00:47:51;;;;;;;5.45;1.65;;;;;;;-142.57;59.08;115900.28;6287236;22;20007;-86
2023/07/13 00:50:19;;;;;;;4.53;1.60;;;;;;;-142.57;59.59;115900.28;6291414;22;20004;-84
2023/07/13 00:52:57;;;;;;;4.88;1.52;;;;;;;-142.57;59.69;115900.28;6268451;22;20027;-85
2023/07/13 00:55:23;;;;;;;4.88;1.50;;;;;;;-142.57;59.53;115900.28;6260341;22;20030;-86
2023/07/13 00:57:49;;;;;;;5.20;1.38;;;;;;;-142.57;60.38;115900.28;6260264;22;20011;-86
2023/07/13 01:00:16;;;;;;;8.02;1.58;;;;;;;-142.57;60.43;115900.28;6286342;22;20323;-86
2023/07/13 01:02:46;;;;;;;7.55;1.63;;;;;;;-142.57;60.40;115900.28;6258252;22;20018;-86
2023/07/13 01:05:18;;;;;;;7.88;1.45;;;;;;;-142.57;60.19;115900.28;6258296;22;20008;-85
2023/07/13 01:07:45;;;;;;;7.82;1.33;;;;;;;-142.57;59.96;115900.28;6257280;22;20011;-86
2023/07/13 01:10:12;;;;;;;5.68;1.65;;;;;;;-142.57;60.06;115900.28;6233691;22;20008;-84
2023/07/13 01:12:38;;;;;;;10.15;1.90;;;;;;;-142.57;60.62;115900.28;6259103;22;19996;-85
2023/07/13 01:15:05;;;;;;;4.90;1.63;;;;;;;-142.57;60.75;115900.28;6257332;22;20022;-86
2023/07/13 01:17:33;;;;;;;3.40;1.38;;;;;;;-142.57;60.95;115900.28;6284414;22;20401;-85
2023/07/13 01:20:00;;;;;;;5.57;1.80;;;;;;;-142.57;61.60;115900.28;6256277;22;20059;-85
2023/07/13 01:22:26;;;;;;;10.77;1.67;;;;;;;-142.57;61.75;115900.28;6231221;22;20019;-85
2023/07/13 01:24:53;;;;;;;8.05;1.65;;;;;;;-142.57;61.70;115900.28;6283478;22;19999;-85
2023/07/13 01:27:24;;;;;;;5.32;1.60;;;;;;;-142.57;61.84;115900.28;6256984;22;20011;-85
2023/07/13 01:29:52;;;;;;;5.05;1.45;;;;;;;-142.57;61.74;115900.28;6256849;22;20000;-85
2023/07/13 01:32:21;;;;;;;8.93;1.83;;;;;;;-142.57;61.63;115900.28;6257554;22;20087;-84
2023/07/13 01:34:47;;;;;;;7.63;1.50;;;;;;;-142.57;61.89;115900.28;6284870;22;20057;-87
2023/07/13 01:37:13;;;;;;;3.92;1.75;;;;;;;-142.57;61.12;115900.28;6257373;22;20004;-86
2023/07/13 01:39:38;;;;;;;4.40;1.50;;;;;;;-142.57;60.34;115900.28;6261588;22;20008;-84
2023/07/13 01:42:04;;;;;;;6.15;1.63;;;;;;;-142.57;60.36;115900.28;6264434;22;20118;-85
2023/07/13 01:44:30;;;;;;;4.63;1.60;;;;;;;-142.57;60.63;115900.28;6260239;22;20071;-85
2023/07/13 01:46:56;;;;;;;5.78;1.67;;;;;;;-142.57;60.61;115900.28;6284511;22;20007;-86
2023/07/13 01:49:21;;;;;;;4.57;1.65;;;;;;;-142.57;60.42;115900.28;6258235;22;20121;-88
2023/07/13 01:51:48;;;;;;;7.28;1.80;;;;;;;-142.57;59.73;115900.28;6263702;22;20085;-87
2023/07/13 01:54:14;;;;;;;6.72;1.73;;;;;;;-142.57;59.85;115900.28;6294902;22;20016;-86
2023/07/13 01:56:41;;;;;;;3.40;1.77;;;;;;;-142.57;59.26;115900.28;6293680;22;20012;-84
2023/07/13 01:59:09;;;;;;;6.35;1.38;;;;;;;-142.57;59.64;115900.28;6294754;22;20003;-86
2023/07/13 02:01:37;;;;;;;6.68;2.05;;;;;;;-142.57;58.63;115900.28;6291994;22;20007;-86
2023/07/13 02:04:03;;;;;;;8.68;1.63;;;;;;;-142.57;57.81;115900.28;6285895;22;20011;-84
2023/07/13 02:06:32;;;;;;;10.82;1.77;;;;;;;-142.57;57.38;115900.28;6234117;22;20019;-85
2023/07/13 02:08:58;;;;;;;10.88;1.77;;;;;;;-142.57;57.36;115900.28;6285955;22;20065;-84
2023/07/13 02:11:24;;;;;;;4.13;1.50;;;;;;;-142.57;58.47;115900.28;6257760;22;20007;-85
2023/07/13 02:13:51;;;;;;;6.03;1.27;;;;;;;-142.57;58.81;115900.28;6233029;22;20308;-86
2023/07/13 02:16:16;;;;;;;6.63;1.58;;;;;;;-142.57;58.82;115900.28;6256044;22;20011;-84
2023/07/13 02:18:42;;;;;;;6.80;1.80;;;;;;;-142.57;58.59;115900.28;6253855;22;20335;-85
2023/07/13 02:21:07;;;;;;;4.18;1.80;;;;;;;-142.57;57.89;115900.28;6254655;22;20046;-85
2023/07/13 02:23:33;;;;;;;4.45;1.73;;;;;;;-142.57;58.22;115900.28;6281114;22;20000;-85
2023/07/13 02:26:02;;;;;;;4.07;1.58;;;;;;;-142.57;58.20;115900.28;6281799;22;20011;-85
2023/07/13 02:28:28;;;;;;;9.23;2.08;;;;;;;-142.57;58.43;115900.28;6281428;22;20070;-86
2023/07/13 02:30:54;;;;;;;3.28;1.58;;;;;;;-142.57;58.85;115900.28;6255639;22;20016;-86
2023/07/13 02:33:19;;;;;;;9.85;1.92;;;;;;;-142.57;58.83;115900.28;6255722;22;20024;-84
2023/07/13 02:35:48;;;;;;;5.75;1.73;;;;;;;-142.57;57.73;115900.28;6254522;22;20000;-84
2023/07/13 02:38:13;;;;;;;5.57;1.60;;;;;;;-142.57;57.76;115900.28;6255062;22;20078;-85
2023/07/13 02:40:39;;;;;;;10.95;1.70;;;;;;;-142.57;57.97;115900.28;6283092;22;20012;-85
2023/07/13 02:43:04;;;;;;;9.68;1.80;;;;;;;-142.57;58.55;115900.28;6253786;22;20012;-85
2023/07/13 02:45:31;;;;;;;7.05;1.92;;;;;;;-142.57;58.60;115900.28;6255084;22;20037;-84
2023/07/13 02:47:59;;;;;;;7.43;1.80;;;;;;;-142.57;58.54;115900.28;6253965;22;20405;-85
2023/07/13 02:50:25;;;;;;;6.35;1.80;;;;;;;-142.57;59.11;115900.28;6282234;22;20011;-84
2023/07/13 02:52:51;;;;;;;9.00;1.60;;;;;;;-142.57;59.02;115900.28;6281827;22;20079;-85
2023/07/13 02:55:16;;;;;;;6.25;1.52;;;;;;;-142.57;58.01;115900.28;6255725;22;20079;-87
2023/07/13 02:57:42;;;;;;;6.25;1.50;;;;;;;-142.57;58.57;115900.28;6256837;22;20473;-87
2023/07/13 03:00:08;;;;;;;5.30;1.90;;;;;;;-142.57;58.76;115900.28;6229296;22;20137;-86
2023/07/13 03:02:34;;;;;;;8.85;1.65;;;;;;;-142.57;59.21;115900.28;6254736;22;20087;-86
2023/07/13 03:05:01;;;;;;;15.38;2.25;;;;;;;-142.57;60.15;115900.28;6253561;22;20012;-86
2023/07/13 03:07:27;;;;;;;9.85;1.70;;;;;;;-142.57;60.11;115900.28;6255235;22;20094;-85
2023/07/13 03:09:57;;;;;;;7.18;1.80;;;;;;;-142.57;58.72;115900.28;6230046;22;20115;-86
2023/07/13 03:12:26;;;;;;;5.68;1.50;;;;;;;-142.57;59.27;115900.28;6256191;22;20004;-84
2023/07/13 03:14:52;;;;;;;8.90;2.60;;;;;;;-142.57;60.99;115900.28;6254828;22;20041;-85
2023/07/13 03:17:18;;;;;;;11.23;2.30;;;;;;;-142.57;62.03;115900.28;6282301;22;20091;-86
2023/07/13 03:19:43;;;;;;;8.05;2.45;;;;;;;-142.57;62.14;115900.28;6254187;22;20042;-85
2023/07/13 03:22:10;;;;;;;12.60;2.70;;;;;;;-142.57;62.27;115900.28;6227908;22;20043;-85
2023/07/13 03:24:37;;;;;;;6.32;2.40;;;;;;;-142.57;63.00;115900.28;6254584;22;20004;-86
2023/07/13 03:27:05;;;;;;;7.07;2.13;;;;;;;-142.57;63.45;115900.28;6230503;22;20012;-87
2023/07/13 03:29:34;;;;;;;12.15;2.15;;;;;;;-142.57;63.82;115900.28;6281630;22;20018;-84
2023/07/13 03:32:04;;;;;;;11.98;2.40;;;;;;;-142.57;63.23;115900.28;6254775;22;20012;-86
2023/07/13 03:34:32;;;;;;;6.65;2.35;;;;;;;-142.57;63.39;115900.28;6255851;22;20060;-85
2023/07/13 03:36:58;;;;;;;7.07;2.20;;;;;;;-142.57;64.31;115900.28;6255167;22;20019;-85
2023/07/13 03:39:23;;;;;;;9.13;2.20;;;;;;;-142.57;65.08;115900.28;6254491;22;20008;-86
2023/07/13 03:41:53;;;;;;;9.13;2.30;;;;;;;-142.57;64.37;115900.28;6255142;22;20335;-86
2023/07/13 03:44:19;;;;;;;7.85;2.22;;;;;;;-142.57;63.78;115900.28;6255657;22;20012;-86
2023/07/13 03:46:48;;;;;;;5.63;2.13;;;;;;;-142.57;63.62;115900.28;6254041;22;20031;-86
2023/07/13 03:49:14;;;;;;;8.65;1.85;;;;;;;-142.57;64.03;115900.28;6255192;22;20015;-84
2023/07/13 03:51:40;;;;;;;9.20;2.15;;;;;;;-142.57;63.37;115900.28;6282458;22;20012;-84
2023/07/13 03:54:06;;;;;;;5.47;1.80;;;;;;;-142.57;63.34;115900.28;6282126;22;20018;-85
2023/07/13 03:56:32;;;;;;;6.97;2.13;;;;;;;-142.57;63.25;115900.28;6255408;22;20025;-85
2023/07/13 03:58:59;;;;;;;7.68;2.28;;;;;;;-142.57;63.78;115900.28;6231401;22;20004;-85
2023/07/13 04:01:42;;;;;;;9.82;2.78;;;;;;;-142.57;63.46;115900.28;6257044;22;20008;-84
2023/07/13 04:04:11;;;;;;;6.22;2.85;;;;;;;-142.57;63.83;115900.28;6136134;23;20018;-85
2023/07/13 04:06:36;;;;;;;5.65;3.17;;;;;;;-142.57;64.95;115900.28;6134365;23;20401;-85
2023/07/13 04:09:08;;;;;;;6.40;2.78;;;;;;;-142.57;65.60;115900.28;6134703;23;20485;-85
2023/07/13 04:11:36;;;;;;;9.40;3.78;;;;;;;-142.57;66.32;115900.28;6111174;23;20024;-86
2023/07/13 04:14:04;;;;;;;8.95;3.08;;;;;;;-142.57;66.85;115900.28;6159442;23;20025;-85
2023/07/13 04:16:30;;;;;;;8.10;3.30;;;;;;;-142.57;67.31;115900.28;6244709;22;20034;-86
2023/07/13 04:18:59;;;;;;;8.90;3.63;;;;;;;-142.57;67.50;115900.28;6283850;22;20167;-84
2023/07/13 04:21:26;;;;;;;11.20;4.05;;;;;;;-142.57;67.82;115900.28;6288898;22;20012;-85
2023/07/13 04:23:54;;;;;;;8.70;4.50;;;;;;;-142.57;68.27;115900.28;6264574;22;19996;-86
2023/07/13 04:26:23;;;;;;;13.88;5.22;;;;;;;-142.57;69.16;115900.28;6248111;22;20003;-88
2023/07/13 04:28:50;;;;;;;12.13;4.75;;;;;;;-142.57;68.47;115900.28;6276161;22;20000;-91
2023/07/13 04:31:16;;;;;;;13.23;4.72;;;;;;;-142.57;68.70;115900.28;6270306;22;20069;-87
2023/07/13 04:33:46;;;;;;;11.60;4.22;;;;;;;-142.57;69.55;115900.28;6298810;22;20063;-89
2023/07/13 04:36:11;;;;;;;11.73;4.28;;;;;;;-142.57;70.30;115900.28;6240350;22;20016;-85
2023/07/13 04:38:41;;;;;;;11.48;4.35;;;;;;;-142.57;70.74;115900.28;6242803;22;20042;-89
2023/07/13 04:41:09;;;;;;;9.98;3.40;;;;;;;-142.57;70.87;115900.28;6273018;22;20090;-89
2023/07/13 04:43:35;;;;;;;9.05;3.55;;;;;;;-142.57;70.24;115900.28;6299257;22;20034;-89
2023/07/13 04:46:10;;;;;;;18.58;4.10;;;;;;;-142.57;70.51;115900.28;6267543;22;20038;-89
2023/07/13 04:48:37;;;;;;;14.77;3.75;;;;;;;-142.57;69.78;115900.28;6245310;22;20034;-87
2023/07/13 04:51:12;;;;;;;15.63;3.97;;;;;;;-142.57;70.99;115900.28;6270638;22;20068;-91
2023/07/13 04:53:38;;;;;;;8.38;4.00;;;;;;;-142.57;72.63;115900.28;6243944;22;20046;-90
2023/07/13 04:56:04;;;;;;;9.18;3.45;;;;;;;-142.57;73.59;115900.28;6266765;22;20012;-88
2023/07/13 04:58:30;;;;;;;10.52;4.03;;;;;;;-142.57;75.14;115900.28;6283426;22;20037;-89
2023/07/13 05:01:01;;;;;;;14.20;3.33;;;;;;;-142.57;74.65;115900.28;6287208;22;20007;-90
2023/07/13 05:03:27;;;;;;;11.75;3.90;;;;;;;-142.57;74.71;115900.28;6261844;22;20045;-88
2023/07/13 05:06:00;;;;;;;8.65;4.10;;;;;;;-142.57;75.02;115900.28;6237355;22;20014;-88
2023/07/13 05:08:26;;;;;;;11.40;4.00;;;;;;;-142.57;75.59;115900.28;6289244;22;20012;-88
2023/07/13 05:10:53;;;;;;;13.52;4.20;;;;;;;-142.57;75.74;115900.28;6265340;22;20457;-88
2023/07/13 05:13:19;;;;;;;14.05;3.78;;;;;;;-142.57;75.63;115900.28;6241442;22;20031;-88
2023/07/13 05:15:48;;;;;;;9.93;3.53;;;;;;;-142.57;75.08;115900.28;6293037;22;20014;-90
2023/07/13 05:18:14;;;;;;;16.60;4.47;;;;;;;-142.57;74.66;115900.28;6289339;22;20046;-90
2023/07/13 05:20:39;;;;;;;14.57;3.47;;;;;;;-142.57;72.95;115900.28;6288802;22;20007;-88
2023/07/13 05:23:07;;;;;;;10.43;3.78;;;;;;;-142.57;72.91;115900.28;6259719;22;20035;-90
2023/07/13 05:25:32;;;;;;;13.15;4.20;;;;;;;-142.57;73.50;115900.28;6263965;22;20019;-88
2023/07/13 05:27:58;;;;;;;13.07;3.72;;;;;;;-142.57;73.43;115900.28;6292668;22;20018;-90
2023/07/13 05:30:24;;;;;;;7.97;3.53;;;;;;;-142.57;73.95;115900.28;6248946;22;20070;-90
2023/07/13 05:32:55;;;;;;;7.68;3.88;;;;;;;-142.57;72.81;115900.28;6297077;22;20010;-90
2023/07/13 05:35:21;;;;;;;6.22;3.40;;;;;;;-142.57;72.06;115900.28;6290824;22;20007;-90
2023/07/13 05:37:46;;;;;;;9.32;3.88;;;;;;;-142.57;71.89;115900.28;6262812;22;20015;-89
2023/07/13 05:40:12;;;;;;;9.85;3.60;;;;;;;-142.57;71.98;115900.28;6260083;22;20008;-87
2023/07/13 05:42:38;;;;;;;9.18;3.20;;;;;;;-142.57;71.45;115900.28;6288025;22;20011;-88
2023/07/13 05:45:04;;;;;;;12.15;3.15;;;;;;;-142.57;71.54;115900.28;6289256;22;20033;-88
2023/07/13 05:47:36;;;;;;;6.32;3.10;;;;;;;-142.57;72.19;115900.28;6262575;22;20439;-89
2023/07/13 05:50:01;;;;;;;10.43;2.90;;;;;;;-142.57;71.81;115900.28;6262623;22;20000;-89
2023/07/13 05:52:33;;;;;;;13.65;3.33;;;;;;;-142.57;70.13;115900.28;6292072;22;20015;-90
2023/07/13 05:54:58;;;;;;;16.60;2.80;;;;;;;-142.57;69.67;115900.28;6286778;22;20133;-88
2023/07/13 05:57:30;;;;;;;8.10;3.28;;;;;;;-142.57;70.57;115900.28;6234971;22;20094;-89
2023/07/13 05:59:56;;;;;;;7.88;2.78;;;;;;;-142.57;70.73;115900.28;6291806;22;20008;-91
2023/07/13 06:02:22;;;;;;;20.63;2.97;;;;;;;-142.57;70.60;115900.28;6263549;22;20359;-88
2023/07/13 06:04:52;;;;;;;13.43;3.20;;;;;;;-142.57;70.96;115900.28;6293883;22;20014;-89
2023/07/13 06:07:18;;;;;;;12.75;2.83;;;;;;;-142.57;70.95;115900.28;6242563;22;20008;-88
2023/07/13 06:09:47;;;;;;;8.57;2.70;;;;;;;-142.57;70.65;115900.28;6265768;22;20075;-89
2023/07/13 06:12:21;;;;;;;13.13;3.23;;;;;;;-142.57;70.92;115900.28;6250140;22;20020;-87
2023/07/13 06:14:47;;;;;;;17.17;3.05;;;;;;;-142.57;72.15;115900.28;6257189;22;20022;-90
2023/07/13 06:17:13;;;;;;;17.60;3.83;;;;;;;-142.57;73.04;115900.28;6252426;22;20019;-89
2023/07/13 06:19:45;;;;;;;24.48;5.07;;;;;;;-142.57;73.92;115900.28;6261944;22;20012;-91
2023/07/13 06:22:11;;;;;;;13.57;6.03;;;;;;;-142.57;74.28;115900.28;6289166;22;20011;-93
2023/07/13 06:24:36;;;;;;;14.65;4.38;;;;;;;-142.57;75.04;115900.28;6282795;22;20055;-88
2023/07/13 06:27:02;;;;;;;17.90;3.90;;;;;;;-142.57;76.33;115900.28;6254892;22;20335;-85
2023/07/13 06:29:27;;;;;;;17.27;4.72;;;;;;;-142.57;76.78;115900.28;6278763;22;20004;-89
2023/07/13 06:31:53;;;;;;;15.95;4.93;;;;;;;-142.57;77.39;115900.28;6277930;22;20008;-86
2023/07/13 06:34:19;;;;;;;19.13;5.10;;;;;;;-142.57;77.91;115900.28;6278401;22;20004;-87
2023/07/13 06:36:44;;;;;;;18.73;4.90;;;;;;;-142.57;78.01;115900.28;6253596;22;20431;-87
2023/07/13 06:39:10;;;;;;;12.07;4.72;;;;;;;-142.57;78.22;115900.28;6278692;22;20315;-86
2023/07/13 06:41:35;;;;;;;12.73;3.80;;;;;;;-142.57;76.71;115900.28;6278173;22;20061;-86
2023/07/13 06:44:02;;;;;;;13.10;4.13;;;;;;;-142.57;76.22;115900.28;6227944;22;20099;-88
2023/07/13 06:46:29;;;;;;;16.33;4.22;;;;;;;-142.57;76.63;115900.28;6226342;22;20092;-88
2023/07/13 06:48:55;;;;;;;10.85;3.75;;;;;;;-142.57;76.41;115900.28;6254069;22;20015;-86
2023/07/13 06:51:21;;;;;;;11.48;4.05;;;;;;;-142.57;78.53;115900.28;6277701;22;20370;-89
2023/07/13 06:53:47;;;;;;;11.48;4.30;;;;;;;-142.57;79.64;115900.28;6250475;22;20007;-83
2023/07/13 06:56:13;;;;;;;9.93;4.38;;;;;;;-142.57;79.80;115900.28;6277753;22;20055;-87
2023/07/13 06:58:41;;;;;;;17.25;4.57;;;;;;;-142.57;79.29;115900.28;6225942;22;20012;-85
2023/07/13 07:01:06;;;;;;;11.93;3.70;;;;;;;-142.57;79.50;115900.28;6277692;22;20069;-86
2023/07/13 07:03:32;;;;;;;12.52;3.95;;;;;;;-142.57;79.60;115900.28;6281437;22;20382;-87
2023/07/13 07:06:30;;;;;;;12.15;5.15;;;;;;;-142.57;82.21;115900.28;6281609;22;20405;-86
2023/07/13 07:08:56;;;;;;;16.70;6.07;;;;;;;-142.57;83.15;115900.28;6124629;23;20061;-87
2023/07/13 07:11:24;;;;;;;9.98;5.13;;;;;;;-142.57;83.03;115900.28;6124907;23;20386;-85
2023/07/13 07:13:51;;;;;;;13.00;5.30;;;;;;;-142.57;83.53;115900.28;6124744;23;20341;-84
2023/07/13 07:16:20;;;;;;;18.75;5.35;;;;;;;-142.57;84.96;115900.28;6124840;23;20092;-88
2023/07/13 07:18:46;;;;;;;15.82;4.88;;;;;;;-142.57;85.62;115900.28;6204215;22;20354;-86
2023/07/13 07:21:12;;;;;;;11.32;4.93;;;;;;;-142.57;85.09;115900.28;6277446;22;20018;-88
2023/07/13 07:23:38;;;;;;;16.13;5.30;;;;;;;-142.57;85.24;115900.28;6277272;22;20086;-85
2023/07/13 07:26:03;;;;;;;18.23;4.70;;;;;;;-142.57;85.04;115900.28;6277528;22;20011;-85
2023/07/13 07:28:29;;;;;;;21.63;4.63;;;;;;;-142.57;85.50;115900.28;6277506;22;20015;-86
2023/07/13 07:30:57;;;;;;;15.57;4.72;;;;;;;-142.57;86.57;115900.28;6250782;22;20010;-85
2023/07/13 07:33:23;;;;;;;12.00;4.53;;;;;;;-142.57;86.02;115900.28;6250752;22;20011;-88
2023/07/13 07:35:49;;;;;;;14.30;3.85;;;;;;;-142.57;86.07;115900.28;6278156;22;20012;-86
2023/07/13 07:38:15;;;;;;;18.98;4.82;;;;;;;-142.57;85.50;115900.28;6278082;22;20091;-86
2023/07/13 07:40:41;;;;;;;13.00;3.92;;;;;;;-142.57;85.23;115900.28;6250192;22;20016;-89
2023/07/13 07:43:08;;;;;;;16.92;4.10;;;;;;;-142.57;85.01;115900.28;6277479;22;20091;-85
2023/07/13 07:45:34;;;;;;;21.25;3.95;;;;;;;-142.57;84.61;115900.28;6277987;22;20016;-86
2023/07/13 07:48:01;;;;;;;19.75;4.38;;;;;;;-142.57;85.28;115900.28;6236002;22;20095;-88
2023/07/13 07:50:28;;;;;;;9.70;3.95;;;;;;;-142.57;85.65;115900.28;6278924;22;20003;-88
2023/07/13 07:52:55;;;;;;;10.25;5.22;;;;;;;-142.57;86.69;115900.28;6250589;22;20096;-85
2023/07/13 07:55:22;;;;;;;13.32;4.68;;;;;;;-142.57;87.75;115900.28;6277455;22;20384;-85
2023/07/13 07:57:48;;;;;;;16.15;4.97;;;;;;;-142.57;87.79;115900.28;6277037;22;20033;-87
2023/07/13 08:00:15;;;;;;;16.98;5.00;;;;;;;-142.57;90.55;115900.28;6277659;22;20007;-88
2023/07/13 08:02:41;;;;;;;21.90;5.55;;;;;;;-142.57;90.79;115900.28;6278583;22;20091;-87
2023/07/13 08:05:08;;;;;;;18.52;5.32;;;;;;;-142.57;91.28;115900.28;6277687;22;20015;-88
2023/07/13 08:07:34;;;;;;;16.15;4.43;;;;;;;-142.57;90.81;115900.28;6278713;22;20012;-86
2023/07/13 08:09:59;;;;;;;26.63;5.25;;;;;;;-142.57;90.51;115900.28;6277427;22;20010;-87
2023/07/13 08:12:25;;;;;;;14.65;5.57;;;;;;;-142.57;91.92;115900.28;6250386;22;20010;-87
2023/07/13 08:14:54;;;;;;;11.43;4.90;;;;;;;-142.57;92.91;115900.28;6277258;22;20011;-84
2023/07/13 08:17:20;;;;;;;12.73;5.20;;;;;;;-142.57;92.24;115900.28;6278313;22;20015;-89
2023/07/13 08:19:46;;;;;;;17.83;6.07;;;;;;;-142.57;92.50;115900.28;6250827;22;20003;-88
2023/07/13 08:22:11;;;;;;;24.63;4.85;;;;;;;-142.57;93.11;115900.28;6280017;22;20109;-85
2023/07/13 08:24:37;;;;;;;15.80;5.47;;;;;;;-142.57;91.82;115900.28;6283972;22;20011;-86
2023/07/13 08:27:03;;;;;;;25.42;6.13;;;;;;;-142.57;92.31;115900.28;6278022;22;20018;-87
2023/07/13 08:29:28;;;;;;;15.85;5.30;;;;;;;-142.57;94.70;115900.28;6278109;22;20026;-89
2023/07/13 08:31:54;;;;;;;25.80;6.40;;;;;;;-142.57;95.16;115900.28;6278281;22;20004;-88
2023/07/13 08:34:20;;;;;;;20.17;5.78;;;;;;;-142.57;96.38;115900.28;6278320;22;20452;-87
2023/07/13 08:36:46;;;;;;;22.05;5.72;;;;;;;-142.57;95.76;115900.28;6250153;22;20011;-86
2023/07/13 08:39:11;;;;;;;17.05;5.15;;;;;;;-142.57;96.62;115900.28;6277507;22;20330;-85
2023/07/13 08:41:37;;;;;;;16.98;5.05;;;;;;;-142.57;96.74;115900.28;6277940;22;20087;-86
2023/07/13 08:44:06;;;;;;;16.67;4.70;;;;;;;-142.57;97.57;115900.28;6252777;22;20011;-86
2023/07/13 08:46:38;;;;;;;27.63;5.18;;;;;;;-142.57;96.44;115900.28;6282981;22;20016;-84
2023/07/13 08:49:14;;;;;;;13.38;5.03;;;;;;;-142.57;96.32;115900.28;6255726;22;20015;-87
2023/07/13 08:51:53;;;;;;;15.35;4.53;;;;;;;-142.57;95.43;115900.28;6280441;22;21063;-87
2023/07/13 08:54:26;;;;;;;14.23;4.28;;;;;;;-142.57;94.68;115900.28;6278020;22;20027;-88
2023/07/13 08:56:54;;;;;;;16.90;4.38;;;;;;;-142.57;93.17;115900.28;6254618;22;20098;-87
2023/07/13 08:59:28;;;;;;;15.50;4.10;;;;;;;-142.57;93.07;115900.28;6228935;22;20027;-86
2023/07/13 09:02:06;;;;;;;12.02;4.15;;;;;;;-142.57;92.12;115900.28;6280418;22;20007;-86
2023/07/13 09:05:01;;;;;;;11.43;4.25;;;;;;;-142.57;89.59;115900.28;6283841;22;20496;-85
2023/07/13 09:07:48;;;;;;;9.98;4.18;;;;;;;-142.57;89.20;115900.28;6196116;22;20426;-84
2023/07/13 09:10:16;;;;;;;16.52;4.50;;;;;;;-142.57;88.87;115900.28;6252533;22;20007;-85
2023/07/13 09:12:57;;;;;;;10.48;3.88;;;;;;;-142.57;87.54;115900.28;6254848;22;20011;-87
2023/07/13 09:15:45;;;;;;;11.90;4.10;;;;;;;-142.57;86.28;115900.28;6291337;22;20012;-90
2023/07/13 09:18:38;;;;;;;11.30;3.90;;;;;;;-142.57;85.23;115900.28;6266017;22;20016;-91
2023/07/13 09:21:20;;;;;;;9.30;3.28;;;;;;;-142.57;83.92;115900.28;6262255;22;20012;-91
2023/07/13 09:23:47;;;;;;;20.23;4.33;;;;;;;-142.57;83.83;115900.28;6240369;22;20042;-84
2023/07/13 09:26:39;;;;;;;10.10;3.90;;;;;;;-142.57;84.71;115900.28;6285302;22;20411;-91
2023/07/13 09:29:33;;;;;;;14.10;3.58;;;;;;;-142.57;84.24;115900.28;6275673;22;20007;-90
2023/07/13 09:32:04;;;;;;;7.30;3.35;;;;;;;-142.57;83.31;115900.28;6200626;22;20099;-82
2023/07/13 09:34:30;;;;;;;11.43;3.78;;;;;;;-142.57;80.63;115900.28;6278603;22;20015;-80
2023/07/13 09:36:56;;;;;;;9.30;3.70;;;;;;;-142.57;78.29;115900.28;6278164;22;20011;-81
2023/07/13 09:39:29;;;;;;;13.23;3.70;;;;;;;-142.57;78.22;115900.28;6251041;22;20018;-81
2023/07/13 09:41:55;;;;;;;15.52;3.33;;;;;;;-142.57;76.27;115900.28;6278231;22;20011;-80
2023/07/13 09:44:30;;;;;;;17.13;3.55;;;;;;;-142.57;71.13;115900.28;6278120;22;20037;-82
2023/07/13 09:46:56;;;;;;;9.45;4.07;;;;;;;-142.57;68.09;115900.28;6277953;22;20015;-80
2023/07/13 09:49:54;;;;;;;15.30;3.50;;;;;;;-142.57;66.46;115900.28;6277481;22;20004;-79
2023/07/13 09:52:19;;;;;;;9.73;3.45;;;;;;;-142.57;63.95;115900.28;6275694;22;20435;-80
2023/07/13 09:54:48;;;;;;;12.85;3.50;;;;;;;-142.57;63.53;115900.28;6277790;22;20012;-80
2023/07/13 09:57:22;;;;;;;6.85;3.03;;;;;;;-142.57;59.54;115900.28;6277867;22;20011;-79
2023/07/13 09:59:51;;;;;;;8.98;2.67;;;;;;;-142.57;56.50;115900.28;6277338;22;20086;-82
2023/07/13 10:02:30;;;;;;;11.02;2.97;;;;;;;-142.57;56.05;115900.28;6277654;22;20007;-79
2023/07/13 10:05:04;;;;;;;16.02;3.45;;;;;;;-142.57;53.94;115900.28;6277593;22;20076;-80
2023/07/13 10:07:31;;;;;;;9.27;3.15;;;;;;;-142.57;53.31;115900.28;6278073;22;20062;-81
2023/07/13 10:10:00;;;;;;;16.38;3.08;;;;;;;-142.57;53.15;115900.28;6250936;22;20437;-80
2023/07/13 10:12:28;;;;;;;13.52;2.90;;;;;;;-142.57;52.26;115900.28;6277802;22;20083;-82
2023/07/13 10:15:00;;;;;;;9.95;2.45;;;;;;;-142.57;52.34;115900.28;6278808;22;20011;-80
2023/07/13 10:17:32;;;;;;;;;;;;;;;-142.57;51.97;115900.28;6278173;22;20016;-80
2023/07/13 10:20:04;;;;;;;8.98;3.40;;;;;;;-142.57;52.34;115900.28;6276970;22;19918;-81
2023/07/13 10:22:49;;;;;;;8.05;3.00;;;;;;;-142.57;51.28;115900.28;6277589;22;20393;-81
2023/07/13 10:25:22;;;;;;;9.57;3.03;;;;;;;-142.57;51.42;115900.28;6277674;22;20435;-81
2023/07/13 10:27:52;;;;;;;8.43;2.80;;;;;;;-142.57;49.32;115900.28;6278009;22;20015;-81
2023/07/13 10:30:28;;;;;;;11.43;2.45;;;;;;;-142.57;49.48;115900.28;6251018;22;20014;-80
2023/07/13 10:32:54;;;;;;;10.98;2.75;;;;;;;-142.57;48.43;115900.28;6277555;22;20450;-82
2023/07/13 10:35:22;;;;;;;8.82;3.03;;;;;;;-142.57;48.25;115900.28;6250662;22;20000;-81
2023/07/13 10:37:54;;;;;;;6.57;3.20;;;;;;;-142.57;48.58;115900.28;6277471;22;20019;-83
2023/07/13 10:40:32;;;;;;;16.33;3.25;;;;;;;-142.57;49.10;115900.28;6277445;22;20087;-80
2023/07/13 10:43:01;;;;;;;8.68;3.35;;;;;;;-142.57;47.89;115900.28;6278257;22;20019;-81
2023/07/13 10:45:30;;;;;;;11.13;3.67;;;;;;;-142.57;49.30;115900.28;6277875;22;20027;-81
2023/07/13 10:47:57;;;;;;;6.75;2.80;;;;;;;-142.57;48.83;115900.28;6277749;22;20019;-82
2023/07/13 10:50:25;;;;;;;9.85;3.17;;;;;;;-142.57;47.43;115900.28;6250635;22;20339;-82
2023/07/13 10:53:01;;;;;;;15.95;3.40;;;;;;;-142.57;46.92;115900.28;6225149;22;20012;-82
2023/07/13 10:56:00;;;;;;;7.97;3.50;;;;;;;-142.57;46.89;115900.28;6277444;22;20094;-83
2023/07/13 10:58:39;;;;;;;16.00;3.90;;;;;;;-142.57;46.21;115900.28;6277639;22;20004;-82
2023/07/13 11:01:39;;;;;;;7.03;3.40;;;;;;;-142.57;45.05;115900.28;6277260;22;20015;-82
2023/07/13 11:04:05;;;;;;;19.90;3.00;;;;;;;-142.57;45.50;115900.28;6257087;22;20008;-81
2023/07/13 11:06:39;;;;;;;9.10;2.60;;;;;;;-142.57;43.79;115900.28;6250267;22;20068;-82
2023/07/13 11:09:36;;;;;;;8.50;3.13;;;;;;;-142.57;43.86;115900.28;6277413;22;20034;-82
2023/07/13 11:12:25;;;;;;;9.88;3.10;;;;;;;-142.57;44.15;115900.28;6277324;22;20018;-81
2023/07/13 11:15:02;;;;;;;15.13;3.10;;;;;;;-142.57;42.84;115900.28;6277985;22;20015;-81